Flight Track Log - Related Links

Times and Time Zones

All times are in EDT time to prevent confusion due to time zone crossing. See the SQH111 flight status page for this flight to view local times or setup timezone preferences in your user account.

Time Position Orientation Groundspeed Altitude Reporting Facility
EDT Latitude Longitude Course Direction KTS MPH feet Rate Location/Type
Thu 08:35:32 AM 39.3000 -94.7000 360° North 103 119 1,600  Level Kansas City TRACON
Thu 08:36:08 AM 39.3167 -94.7000 90° East 113 130 2,500 1,625 Climbing Kansas City TRACON
Thu 08:37:08 AM 39.3167 -94.6500 116° Southeast 159 183 4,200 1,607 Climbing Kansas City TRACON
Thu 08:38:00 AM 39.2956 -94.5944 106° East 165 190 5,500 1,500 Climbing Kansas City Center
Thu 08:39:00 AM 39.2808 -94.5300 118° Southeast 193 222 7,000 1,600 Climbing Kansas City Center
Thu 08:40:00 AM 39.2622 -94.4844 174° South 184 212 8,700 1,750 Climbing Kansas City Center
Thu 08:41:00 AM 39.2206 -94.4792 174° South 130 150 10,500 1,700 Climbing Kansas City Center
Thu 08:42:00 AM 39.1808 -94.4739 174° South 137 158 12,100 1,650 Climbing Kansas City Center
Thu 08:43:00 AM 39.1411 -94.4686 171° South 150 173 13,800 1,500 Climbing Kansas City Center
Thu 08:44:00 AM 39.0994 -94.4606 177° South 157 181 15,100 1,450 Climbing Kansas City Center
Thu 08:45:00 AM 39.0517 -94.4578 174° South 166 191 16,700 950 Climbing Kansas City Center
Thu 08:46:00 AM 38.9953 -94.4500 176° South 180 207 17,000 150 Climbing Kansas City Center
Thu 08:47:00 AM 38.9328 -94.4444 157° South 217 250 17,000  Level Kansas City Center
Thu 08:48:00 AM 38.8744 -94.4128 157° South 242 278 17,000  Level Kansas City Center
Thu 08:49:00 AM 38.8014 -94.3728 160° South 257 296 17,000  Level Kansas City Center
Thu 08:50:00 AM 38.7325 -94.3411 156° South 257 296 17,000  Level Kansas City Center
Thu 08:51:00 AM 38.6678 -94.3039 160° South 257 296 17,000  Level Kansas City Center
Thu 08:52:00 AM 38.6053 -94.2750 159° South 257 296 17,000  Level Kansas City Center
Thu 08:53:00 AM 38.5281 -94.2381 158° South 263 303 17,000  Level Kansas City Center
Thu 08:54:00 AM 38.4611 -94.2036 159° South 268 308 17,000  Level Kansas City Center
Thu 08:55:00 AM 38.3922 -94.1694 158° South 273 314 17,000  Level Kansas City Center
Thu 08:56:00 AM 38.3297 -94.1381 160° South 271 312 17,000  Level Kansas City Center
Thu 08:57:00 AM 38.2525 -94.1014 161° South 271 312 17,000  Level Kansas City Center
Thu 08:58:00 AM 38.1919 -94.0753 158° South 266 306 17,000  Level Kansas City Center
Thu 08:59:00 AM 38.1269 -94.0414 160° South 266 306 17,000  Level Kansas City Center
Thu 09:00:00 AM 38.0539 -94.0075 160° South 271 312 17,000  Level Kansas City Center
Thu 09:01:00 AM 37.9869 -93.9764 158° South 266 306 17,000 50 Level Kansas City Center
Thu 09:02:00 AM 37.9203 -93.9428 159° South 266 306 17,100 50 Climbing Kansas City Center
Thu 09:03:00 AM 37.8511 -93.9092 159° South 266 306 17,100 -50 Level Kansas City Center
Thu 09:04:00 AM 37.7822 -93.8756 158° South 266 306 17,000 -50 Descending Kansas City Center
Thu 09:05:00 AM 37.7153 -93.8419 160° South 266 306 17,000  Level Kansas City Center
Thu 09:06:00 AM 37.6461 -93.8108 158° South 266 306 17,000  Level Kansas City Center
Thu 09:07:00 AM 37.5814 -93.7775 161° South 266 306 17,000  Level Kansas City Center
Thu 09:08:00 AM 37.5122 -93.7467 158° South 266 306 17,000  Level Kansas City Center
Thu 09:09:00 AM 37.4475 -93.7133 160° South 266 306 17,000  Level Kansas City Center
Thu 09:10:00 AM 37.3825 -93.6828 160° South 261 300 17,000 -200 Level Kansas City Center
Thu 09:11:00 AM 37.3114 -93.6494 158° South 261 300 16,600 -700 Descending Kansas City Center
Thu 09:12:00 AM 37.2403 -93.6139 161° South 266 306 15,600 -1,000 Descending Kansas City Center
Thu 09:13:00 AM 37.1650 -93.5808 158° South 272 313 14,600 -1,000 Descending Kansas City Center
Thu 09:14:00 AM 37.0917 -93.5428 161° South 277 319 13,600 -1,000 Descending Kansas City Center
Thu 09:15:00 AM 37.0161 -93.5097 159° South 282 325 12,600 -1,000 Descending Kansas City Center
Thu 09:16:00 AM 36.9428 -93.4744 158° South 288 331 11,600 -1,000 Descending Kansas City Center
Thu 09:17:00 AM 36.8717 -93.4389 162° South 288 331 10,600 -950 Descending Kansas City Center
Thu 09:18:00 AM 36.7964 -93.4089 158° South 288 331 9,700 -950 Descending Kansas City Center
Thu 09:19:00 AM 36.7269 -93.3736 161° South 288 331 8,700 -900 Descending Kansas City Center
Thu 09:20:00 AM 36.6475 -93.3386 159° South 282 325 7,900 -1,000 Descending Kansas City Center
Thu 09:21:00 AM 36.5908 -93.3108 157° South 270 311 6,700 -964 Descending Kansas City Center
Thu 09:22:17 AM 36.5083 -93.2667 158° South 262 302 5,700 -745 Descending Memphis Center
Thu 09:23:17 AM 36.4403 -93.2331 158° South 262 302 5,000 -350 Descending Memphis Center
Thu 09:24:17 AM 36.3681 -93.1972 159° South 262 302 5,000  Level Memphis Center
Thu 09:25:17 AM 36.2961 -93.1636 158° South 262 302 5,000  Level Memphis Center
Thu 09:26:17 AM 36.2528 -93.1417 360° North 262 302 5,000  Level Memphis Center
Thu 09:27:17 AM 36.2528 -93.1417 360° North 262 302 5,000  Level Memphis Center
Thu 09:28:17 AM 36.2528 -93.1417 360° North 262 302 5,000  Level Memphis Center
Thu 09:29:17 AM 36.2528 -93.1417 360° North 262 302 5,000  Level Memphis Center
Thu 09:30:17 AM 36.2528 -93.1417 360° North 262 302 5,000  Level Memphis Center
Thu 09:31:17 AM 36.2528 -93.1417 360° North 262 302 5,000  Level Memphis Center
Thu 09:32:17 AM 36.2528 -93.1417 360° North 262 302 5,000  Level Memphis Center
Thu 09:33:17 AM 36.2528 -93.1417 360° North 262 302 5,000  Level Memphis Center
Thu 09:34:17 AM 36.2528 -93.1417 360° North 262 302 5,000  Level Memphis Center

Login

Don't have an account? Register now (free) for customized features, flight alerts, and more!